sensor_id;sensor_type;location;lat;lon;timestamp;temperature;humidity
20726;DHT22;10524;48.132;8.518;2022-08-24T00:00:07;11.80;99.90
20726;DHT22;10524;48.132;8.518;2022-08-24T00:02:33;11.80;99.90
20726;DHT22;10524;48.132;8.518;2022-08-24T00:04:59;11.80;99.90
20726;DHT22;10524;48.132;8.518;2022-08-24T00:07:25;11.70;99.90
20726;DHT22;10524;48.132;8.518;2022-08-24T00:09:51;11.70;99.90
20726;DHT22;10524;48.132;8.518;2022-08-24T00:12:17;11.70;99.90
20726;DHT22;10524;48.132;8.518;2022-08-24T00:14:42;11.60;99.90
20726;DHT22;10524;48.132;8.518;2022-08-24T00:17:09;11.60;99.90
20726;DHT22;10524;48.132;8.518;2022-08-24T00:19:35;11.70;99.90
20726;DHT22;10524;48.132;8.518;2022-08-24T00:22:01;11.80;99.90
20726;DHT22;10524;48.132;8.518;2022-08-24T00:24:26;11.80;99.90
20726;DHT22;10524;48.132;8.518;2022-08-24T00:26:53;11.70;99.90
20726;DHT22;10524;48.132;8.518;2022-08-24T00:29:20;11.60;99.90
20726;DHT22;10524;48.132;8.518;2022-08-24T00:31:46;11.50;99.90
20726;DHT22;10524;48.132;8.518;2022-08-24T00:34:12;11.50;99.90
20726;DHT22;10524;48.132;8.518;2022-08-24T00:36:40;11.60;99.90
20726;DHT22;10524;48.132;8.518;2022-08-24T00:39:06;11.60;99.90
20726;DHT22;10524;48.132;8.518;2022-08-24T00:41:33;11.60;99.90
20726;DHT22;10524;48.132;8.518;2022-08-24T00:44:02;11.50;99.90
20726;DHT22;10524;48.132;8.518;2022-08-24T00:49:07;11.40;99.90
20726;DHT22;10524;48.132;8.518;2022-08-24T00:51:46;11.30;99.90
20726;DHT22;10524;48.132;8.518;2022-08-24T00:54:15;11.20;99.90
20726;DHT22;10524;48.132;8.518;2022-08-24T00:56:46;11.20;99.90
20726;DHT22;10524;48.132;8.518;2022-08-24T00:59:22;11.10;99.90
20726;DHT22;10524;48.132;8.518;2022-08-24T01:01:51;11.00;99.90
20726;DHT22;10524;48.132;8.518;2022-08-24T01:04:24;11.00;99.90
20726;DHT22;10524;48.132;8.518;2022-08-24T01:06:54;11.10;99.90
20726;DHT22;10524;48.132;8.518;2022-08-24T01:09:19;11.00;99.90
20726;DHT22;10524;48.132;8.518;2022-08-24T01:11:46;11.00;99.90
20726;DHT22;10524;48.132;8.518;2022-08-24T01:14:13;10.90;99.90
20726;DHT22;10524;48.132;8.518;2022-08-24T01:16:39;10.80;99.90
20726;DHT22;10524;48.132;8.518;2022-08-24T01:24:39;10.60;99.90
20726;DHT22;10524;48.132;8.518;2022-08-24T01:27:08;10.60;99.90
20726;DHT22;10524;48.132;8.518;2022-08-24T01:29:34;10.50;99.90
20726;DHT22;10524;48.132;8.518;2022-08-24T01:32:02;10.60;99.90
20726;DHT22;10524;48.132;8.518;2022-08-24T01:34:28;10.70;99.90
20726;DHT22;10524;48.132;8.518;2022-08-24T01:36:55;10.60;99.90
20726;DHT22;10524;48.132;8.518;2022-08-24T01:39:24;10.60;99.90
20726;DHT22;10524;48.132;8.518;2022-08-24T01:41:50;10.60;99.90
20726;DHT22;10524;48.132;8.518;2022-08-24T01:44:18;10.60;99.90
20726;DHT22;10524;48.132;8.518;2022-08-24T01:46:46;10.50;99.90
20726;DHT22;10524;48.132;8.518;2022-08-24T01:49:13;10.50;99.90
20726;DHT22;10524;48.132;8.518;2022-08-24T01:51:40;10.60;99.90
20726;DHT22;10524;48.132;8.518;2022-08-24T01:54:06;10.50;99.90
20726;DHT22;10524;48.132;8.518;2022-08-24T01:56:33;10.50;99.90
20726;DHT22;10524;48.132;8.518;2022-08-24T01:59:00;10.40;99.90
20726;DHT22;10524;48.132;8.518;2022-08-24T02:01:28;10.30;99.90
20726;DHT22;10524;48.132;8.518;2022-08-24T02:03:56;10.30;99.90
20726;DHT22;10524;48.132;8.518;2022-08-24T02:06:22;10.30;99.90
20726;DHT22;10524;48.132;8.518;2022-08-24T02:08:48;10.30;99.90
20726;DHT22;10524;48.132;8.518;2022-08-24T02:11:14;10.20;99.90
20726;DHT22;10524;48.132;8.518;2022-08-24T02:13:40;10.20;99.90
20726;DHT22;10524;48.132;8.518;2022-08-24T02:16:07;10.10;99.90
20726;DHT22;10524;48.132;8.518;2022-08-24T02:18:36;10.10;99.90
20726;DHT22;10524;48.132;8.518;2022-08-24T02:21:05;10.10;99.90
20726;DHT22;10524;48.132;8.518;2022-08-24T02:23:31;10.00;99.90
20726;DHT22;10524;48.132;8.518;2022-08-24T02:25:58;10.00;99.90
20726;DHT22;10524;48.132;8.518;2022-08-24T02:28:23;10.00;99.90
20726;DHT22;10524;48.132;8.518;2022-08-24T02:30:49;10.00;99.90
20726;DHT22;10524;48.132;8.518;2022-08-24T02:33:15;10.00;99.90
20726;DHT22;10524;48.132;8.518;2022-08-24T02:35:40;10.00;99.90
20726;DHT22;10524;48.132;8.518;2022-08-24T02:38:07;9.90;99.90
20726;DHT22;10524;48.132;8.518;2022-08-24T02:40:34;9.90;99.90
20726;DHT22;10524;48.132;8.518;2022-08-24T02:42:59;9.90;99.90
20726;DHT22;10524;48.132;8.518;2022-08-24T02:45:25;9.90;99.90
20726;DHT22;10524;48.132;8.518;2022-08-24T02:47:51;9.80;99.90
20726;DHT22;10524;48.132;8.518;2022-08-24T02:50:18;9.80;99.90
20726;DHT22;10524;48.132;8.518;2022-08-24T02:52:44;9.90;99.90
20726;DHT22;10524;48.132;8.518;2022-08-24T02:55:13;9.90;99.90
20726;DHT22;10524;48.132;8.518;2022-08-24T02:57:40;9.80;99.90
20726;DHT22;10524;48.132;8.518;2022-08-24T03:00:09;9.80;99.90
20726;DHT22;10524;48.132;8.518;2022-08-24T03:02:35;9.80;99.90
20726;DHT22;10524;48.132;8.518;2022-08-24T03:05:01;9.80;99.90
20726;DHT22;10524;48.132;8.518;2022-08-24T03:07:27;9.70;99.90
20726;DHT22;10524;48.132;8.518;2022-08-24T03:09:53;9.70;99.90
20726;DHT22;10524;48.132;8.518;2022-08-24T03:12:19;9.70;99.90
20726;DHT22;10524;48.132;8.518;2022-08-24T03:14:44;9.60;99.90
20726;DHT22;10524;48.132;8.518;2022-08-24T03:17:10;9.70;99.90
20726;DHT22;10524;48.132;8.518;2022-08-24T03:19:36;9.80;99.90
20726;DHT22;10524;48.132;8.518;2022-08-24T03:22:02;9.80;99.90
20726;DHT22;10524;48.132;8.518;2022-08-24T03:24:28;9.70;99.90
20726;DHT22;10524;48.132;8.518;2022-08-24T03:26:53;9.70;99.90
20726;DHT22;10524;48.132;8.518;2022-08-24T03:29:19;9.60;99.90
20726;DHT22;10524;48.132;8.518;2022-08-24T03:31:45;9.50;99.90
20726;DHT22;10524;48.132;8.518;2022-08-24T03:34:11;9.60;99.90
20726;DHT22;10524;48.132;8.518;2022-08-24T03:36:38;9.60;99.90
20726;DHT22;10524;48.132;8.518;2022-08-24T03:39:05;9.60;99.90
20726;DHT22;10524;48.132;8.518;2022-08-24T03:41:30;9.60;99.90
20726;DHT22;10524;48.132;8.518;2022-08-24T03:43:56;9.50;99.90
20726;DHT22;10524;48.132;8.518;2022-08-24T03:46:24;9.50;99.90
20726;DHT22;10524;48.132;8.518;2022-08-24T03:48:52;9.50;99.90
20726;DHT22;10524;48.132;8.518;2022-08-24T03:51:22;9.60;99.90
20726;DHT22;10524;48.132;8.518;2022-08-24T03:53:48;9.60;99.90
20726;DHT22;10524;48.132;8.518;2022-08-24T03:56:15;9.60;99.90
20726;DHT22;10524;48.132;8.518;2022-08-24T03:58:41;9.50;99.90
20726;DHT22;10524;48.132;8.518;2022-08-24T04:01:07;9.30;99.90
20726;DHT22;10524;48.132;8.518;2022-08-24T04:03:37;9.20;99.90
20726;DHT22;10524;48.132;8.518;2022-08-24T04:06:05;9.20;99.90
20726;DHT22;10524;48.132;8.518;2022-08-24T04:08:32;9.10;99.90
20726;DHT22;10524;48.132;8.518;2022-08-24T04:10:58;9.00;99.90
20726;DHT22;10524;48.132;8.518;2022-08-24T04:13:23;9.00;99.90
20726;DHT22;10524;48.132;8.518;2022-08-24T04:15:49;9.00;99.90
20726;DHT22;10524;48.132;8.518;2022-08-24T04:18:18;9.00;99.90
20726;DHT22;10524;48.132;8.518;2022-08-24T04:20:44;9.00;99.90
20726;DHT22;10524;48.132;8.518;2022-08-24T04:23:11;9.00;99.90
20726;DHT22;10524;48.132;8.518;2022-08-24T04:25:41;9.00;99.90
20726;DHT22;10524;48.132;8.518;2022-08-24T04:28:07;9.00;99.90
20726;DHT22;10524;48.132;8.518;2022-08-24T04:30:33;9.10;99.90
20726;DHT22;10524;48.132;8.518;2022-08-24T04:32:59;9.10;99.90
20726;DHT22;10524;48.132;8.518;2022-08-24T04:35:24;9.20;99.90
20726;DHT22;10524;48.132;8.518;2022-08-24T04:37:50;9.10;99.90
20726;DHT22;10524;48.132;8.518;2022-08-24T04:40:16;9.10;99.90
20726;DHT22;10524;48.132;8.518;2022-08-24T04:42:41;9.20;99.90
20726;DHT22;10524;48.132;8.518;2022-08-24T04:45:07;9.20;99.90
20726;DHT22;10524;48.132;8.518;2022-08-24T04:47:33;9.30;99.90
20726;DHT22;10524;48.132;8.518;2022-08-24T04:49:59;9.40;99.90
20726;DHT22;10524;48.132;8.518;2022-08-24T04:52:24;9.60;99.90
20726;DHT22;10524;48.132;8.518;2022-08-24T04:54:50;10.00;99.90
20726;DHT22;10524;48.132;8.518;2022-08-24T04:57:16;10.30;99.90
20726;DHT22;10524;48.132;8.518;2022-08-24T04:59:41;10.80;99.90
20726;DHT22;10524;48.132;8.518;2022-08-24T05:02:08;11.20;99.90
20726;DHT22;10524;48.132;8.518;2022-08-24T05:04:34;11.60;99.90
20726;DHT22;10524;48.132;8.518;2022-08-24T05:06:59;11.90;99.90
20726;DHT22;10524;48.132;8.518;2022-08-24T05:09:25;12.10;99.90
20726;DHT22;10524;48.132;8.518;2022-08-24T05:11:50;12.50;99.90
20726;DHT22;10524;48.132;8.518;2022-08-24T05:14:17;13.10;99.90
20726;DHT22;10524;48.132;8.518;2022-08-24T05:16:43;13.60;99.90
20726;DHT22;10524;48.132;8.518;2022-08-24T05:19:09;14.20;99.90
20726;DHT22;10524;48.132;8.518;2022-08-24T05:21:36;14.90;99.90
20726;DHT22;10524;48.132;8.518;2022-08-24T05:24:03;15.60;99.90
20726;DHT22;10524;48.132;8.518;2022-08-24T05:26:28;16.20;99.90
20726;DHT22;10524;48.132;8.518;2022-08-24T05:29:00;16.80;99.90
20726;DHT22;10524;48.132;8.518;2022-08-24T05:31:29;17.40;99.90
20726;DHT22;10524;48.132;8.518;2022-08-24T05:33:55;17.90;99.90
20726;DHT22;10524;48.132;8.518;2022-08-24T05:38:52;17.30;99.90
20726;DHT22;10524;48.132;8.518;2022-08-24T05:41:18;17.50;99.90
20726;DHT22;10524;48.132;8.518;2022-08-24T05:43:44;18.00;99.90
20726;DHT22;10524;48.132;8.518;2022-08-24T05:46:10;18.70;99.90
20726;DHT22;10524;48.132;8.518;2022-08-24T05:48:36;19.20;99.90
20726;DHT22;10524;48.132;8.518;2022-08-24T05:51:04;19.80;99.90
20726;DHT22;10524;48.132;8.518;2022-08-24T05:53:30;20.60;99.90
20726;DHT22;10524;48.132;8.518;2022-08-24T05:55:56;21.50;99.90
20726;DHT22;10524;48.132;8.518;2022-08-24T05:58:21;22.00;99.90
20726;DHT22;10524;48.132;8.518;2022-08-24T06:00:47;22.80;99.90
20726;DHT22;10524;48.132;8.518;2022-08-24T06:03:14;23.40;99.90
20726;DHT22;10524;48.132;8.518;2022-08-24T06:05:41;23.90;99.90
20726;DHT22;10524;48.132;8.518;2022-08-24T06:08:08;24.40;99.90
20726;DHT22;10524;48.132;8.518;2022-08-24T06:10:42;25.10;99.90
20726;DHT22;10524;48.132;8.518;2022-08-24T06:13:09;25.20;99.90
20726;DHT22;10524;48.132;8.518;2022-08-24T06:15:36;25.60;99.90
20726;DHT22;10524;48.132;8.518;2022-08-24T06:18:04;26.10;99.90
20726;DHT22;10524;48.132;8.518;2022-08-24T06:20:31;26.70;99.90
20726;DHT22;10524;48.132;8.518;2022-08-24T06:22:57;26.30;99.90
20726;DHT22;10524;48.132;8.518;2022-08-24T06:25:23;26.10;99.90
20726;DHT22;10524;48.132;8.518;2022-08-24T06:28:08;25.30;99.90
20726;DHT22;10524;48.132;8.518;2022-08-24T06:30:33;24.70;99.90
20726;DHT22;10524;48.132;8.518;2022-08-24T06:33:03;25.60;99.90
20726;DHT22;10524;48.132;8.518;2022-08-24T06:35:29;26.30;99.90
20726;DHT22;10524;48.132;8.518;2022-08-24T06:37:55;27.30;99.90
20726;DHT22;10524;48.132;8.518;2022-08-24T06:40:20;27.50;99.90
20726;DHT22;10524;48.132;8.518;2022-08-24T06:42:46;28.60;99.90
20726;DHT22;10524;48.132;8.518;2022-08-24T06:45:12;29.00;99.90
20726;DHT22;10524;48.132;8.518;2022-08-24T06:47:39;29.50;99.70
20726;DHT22;10524;48.132;8.518;2022-08-24T06:50:05;30.60;98.90
20726;DHT22;10524;48.132;8.518;2022-08-24T06:52:31;31.40;97.80
20726;DHT22;10524;48.132;8.518;2022-08-24T06:54:58;31.10;97.00
20726;DHT22;10524;48.132;8.518;2022-08-24T06:57:24;31.90;96.50
20726;DHT22;10524;48.132;8.518;2022-08-24T06:59:49;31.70;96.30
20726;DHT22;10524;48.132;8.518;2022-08-24T07:02:15;32.00;95.90
20726;DHT22;10524;48.132;8.518;2022-08-24T07:04:43;31.30;96.30
20726;DHT22;10524;48.132;8.518;2022-08-24T07:07:10;30.40;96.90
20726;DHT22;10524;48.132;8.518;2022-08-24T07:09:35;30.90;96.50
20726;DHT22;10524;48.132;8.518;2022-08-24T07:12:01;30.50;96.80
20726;DHT22;10524;48.132;8.518;2022-08-24T07:14:27;30.80;97.10
20726;DHT22;10524;48.132;8.518;2022-08-24T07:16:53;31.10;96.30
20726;DHT22;10524;48.132;8.518;2022-08-24T07:19:18;30.80;96.50
20726;DHT22;10524;48.132;8.518;2022-08-24T07:21:44;31.40;96.80
20726;DHT22;10524;48.132;8.518;2022-08-24T07:24:10;31.80;96.10
20726;DHT22;10524;48.132;8.518;2022-08-24T07:26:37;33.30;95.10
20726;DHT22;10524;48.132;8.518;2022-08-24T07:29:07;33.90;93.60
20726;DHT22;10524;48.132;8.518;2022-08-24T07:31:36;34.50;93.20
20726;DHT22;10524;48.132;8.518;2022-08-24T07:34:03;34.70;92.60
20726;DHT22;10524;48.132;8.518;2022-08-24T07:36:30;34.60;92.80
20726;DHT22;10524;48.132;8.518;2022-08-24T07:38:56;36.10;91.80
20726;DHT22;10524;48.132;8.518;2022-08-24T07:41:22;36.30;90.90
20726;DHT22;10524;48.132;8.518;2022-08-24T07:43:50;36.00;91.10
20726;DHT22;10524;48.132;8.518;2022-08-24T07:46:16;36.40;90.50
20726;DHT22;10524;48.132;8.518;2022-08-24T07:48:42;36.40;90.10
20726;DHT22;10524;48.132;8.518;2022-08-24T07:51:14;36.30;90.20
20726;DHT22;10524;48.132;8.518;2022-08-24T07:53:41;36.70;90.20
20726;DHT22;10524;48.132;8.518;2022-08-24T07:56:07;37.10;88.80
20726;DHT22;10524;48.132;8.518;2022-08-24T07:58:34;36.20;89.60
20726;DHT22;10524;48.132;8.518;2022-08-24T08:01:00;36.10;89.70
20726;DHT22;10524;48.132;8.518;2022-08-24T08:03:26;36.20;89.70
20726;DHT22;10524;48.132;8.518;2022-08-24T08:05:58;36.70;87.90
20726;DHT22;10524;48.132;8.518;2022-08-24T08:08:25;35.20;88.40
20726;DHT22;10524;48.132;8.518;2022-08-24T08:10:51;35.00;86.20
20726;DHT22;10524;48.132;8.518;2022-08-24T08:13:17;35.00;88.00
20726;DHT22;10524;48.132;8.518;2022-08-24T08:15:43;34.70;86.50
20726;DHT22;10524;48.132;8.518;2022-08-24T08:18:09;34.30;87.40
20726;DHT22;10524;48.132;8.518;2022-08-24T08:20:37;34.80;86.60
20726;DHT22;10524;48.132;8.518;2022-08-24T08:23:03;35.20;86.50
20726;DHT22;10524;48.132;8.518;2022-08-24T08:25:48;35.70;83.70
20726;DHT22;10524;48.132;8.518;2022-08-24T08:28:14;36.10;83.60
20726;DHT22;10524;48.132;8.518;2022-08-24T08:30:40;35.80;82.70
20726;DHT22;10524;48.132;8.518;2022-08-24T08:33:06;35.90;81.80
20726;DHT22;10524;48.132;8.518;2022-08-24T08:35:32;33.90;83.00
20726;DHT22;10524;48.132;8.518;2022-08-24T08:37:59;33.90;84.70
20726;DHT22;10524;48.132;8.518;2022-08-24T08:40:31;32.90;84.70
20726;DHT22;10524;48.132;8.518;2022-08-24T08:43:29;32.10;85.80
20726;DHT22;10524;48.132;8.518;2022-08-24T08:46:14;30.30;88.90
20726;DHT22;10524;48.132;8.518;2022-08-24T08:49:00;30.30;90.20
20726;DHT22;10524;48.132;8.518;2022-08-24T09:07:58;33.80;83.30
20726;DHT22;10524;48.132;8.518;2022-08-24T09:10:49;32.10;85.50
20726;DHT22;10524;48.132;8.518;2022-08-24T09:28:10;37.40;80.60
20726;DHT22;10524;48.132;8.518;2022-08-24T09:30:41;36.30;81.50
20726;DHT22;10524;48.132;8.518;2022-08-24T09:33:20;36.00;80.40
20726;DHT22;10524;48.132;8.518;2022-08-24T09:38:56;34.10;80.20
20726;DHT22;10524;48.132;8.518;2022-08-24T09:42:32;34.30;81.00
20726;DHT22;10524;48.132;8.518;2022-08-24T09:53:37;36.40;76.10
20726;DHT22;10524;48.132;8.518;2022-08-24T10:04:55;34.80;76.10
20726;DHT22;10524;48.132;8.518;2022-08-24T10:16:26;36.20;74.70
20726;DHT22;10524;48.132;8.518;2022-08-24T10:19:10;37.00;74.30
20726;DHT22;10524;48.132;8.518;2022-08-24T10:21:57;35.90;74.10
20726;DHT22;10524;48.132;8.518;2022-08-24T10:24:38;35.50;75.40
20726;DHT22;10524;48.132;8.518;2022-08-24T10:35:21;35.60;75.70
20726;DHT22;10524;48.132;8.518;2022-08-24T10:46:48;34.70;76.90
20726;DHT22;10524;48.132;8.518;2022-08-24T10:54:48;35.70;75.80
20726;DHT22;10524;48.132;8.518;2022-08-24T10:57:36;35.90;74.60
20726;DHT22;10524;48.132;8.518;2022-08-24T11:00:13;33.40;75.60
20726;DHT22;10524;48.132;8.518;2022-08-24T11:02:42;34.50;76.60
20726;DHT22;10524;48.132;8.518;2022-08-24T11:05:12;34.70;75.20
20726;DHT22;10524;48.132;8.518;2022-08-24T11:07:58;35.20;75.30
20726;DHT22;10524;48.132;8.518;2022-08-24T11:10:28;35.30;75.20
20726;DHT22;10524;48.132;8.518;2022-08-24T11:12:55;36.20;75.50
20726;DHT22;10524;48.132;8.518;2022-08-24T11:15:26;34.70;74.80
20726;DHT22;10524;48.132;8.518;2022-08-24T11:17:58;33.60;76.60
20726;DHT22;10524;48.132;8.518;2022-08-24T11:20:46;33.50;77.00
20726;DHT22;10524;48.132;8.518;2022-08-24T11:23:18;34.30;75.20
20726;DHT22;10524;48.132;8.518;2022-08-24T11:26:04;35.80;74.20
20726;DHT22;10524;48.132;8.518;2022-08-24T11:28:50;37.30;73.20
20726;DHT22;10524;48.132;8.518;2022-08-24T11:31:26;37.90;73.30
20726;DHT22;10524;48.132;8.518;2022-08-24T11:33:58;37.60;71.40
20726;DHT22;10524;48.132;8.518;2022-08-24T11:36:27;37.50;71.80
20726;DHT22;10524;48.132;8.518;2022-08-24T11:39:14;35.80;71.00
20726;DHT22;10524;48.132;8.518;2022-08-24T11:47:22;34.80;72.30
20726;DHT22;10524;48.132;8.518;2022-08-24T11:49:59;34.00;73.30
20726;DHT22;10524;48.132;8.518;2022-08-24T11:52:42;35.10;70.90
20726;DHT22;10524;48.132;8.518;2022-08-24T11:57:59;36.20;71.00
20726;DHT22;10524;48.132;8.518;2022-08-24T12:00:59;35.80;71.50
20726;DHT22;10524;48.132;8.518;2022-08-24T12:03:49;35.90;70.30
20726;DHT22;10524;48.132;8.518;2022-08-24T12:06:28;35.90;70.00
20726;DHT22;10524;48.132;8.518;2022-08-24T12:12:02;35.90;69.90
20726;DHT22;10524;48.132;8.518;2022-08-24T12:14:51;35.40;70.10
20726;DHT22;10524;48.132;8.518;2022-08-24T12:20:29;35.80;69.30
20726;DHT22;10524;48.132;8.518;2022-08-24T12:22:59;36.40;68.40
20726;DHT22;10524;48.132;8.518;2022-08-24T12:25:30;36.40;69.40
20726;DHT22;10524;48.132;8.518;2022-08-24T12:28:27;35.60;70.40
20726;DHT22;10524;48.132;8.518;2022-08-24T12:30:57;35.00;72.30
20726;DHT22;10524;48.132;8.518;2022-08-24T12:33:30;34.90;71.40
20726;DHT22;10524;48.132;8.518;2022-08-24T12:36:03;34.40;72.40
20726;DHT22;10524;48.132;8.518;2022-08-24T12:38:42;34.60;70.90
20726;DHT22;10524;48.132;8.518;2022-08-24T12:41:30;35.80;69.50
20726;DHT22;10524;48.132;8.518;2022-08-24T12:44:12;35.40;70.20
20726;DHT22;10524;48.132;8.518;2022-08-24T12:46:39;34.20;70.10
20726;DHT22;10524;48.132;8.518;2022-08-24T12:49:13;33.50;72.40
20726;DHT22;10524;48.132;8.518;2022-08-24T12:59:49;35.50;69.70
20726;DHT22;10524;48.132;8.518;2022-08-24T13:38:29;32.10;75.20
20726;DHT22;10524;48.132;8.518;2022-08-24T13:43:55;32.80;74.00
20726;DHT22;10524;48.132;8.518;2022-08-24T13:48:57;33.30;72.70
20726;DHT22;10524;48.132;8.518;2022-08-24T13:51:44;33.50;73.40
20726;DHT22;10524;48.132;8.518;2022-08-24T13:57:15;33.50;71.50
20726;DHT22;10524;48.132;8.518;2022-08-24T14:03:14;33.30;73.00
20726;DHT22;10524;48.132;8.518;2022-08-24T14:08:54;34.20;71.50
20726;DHT22;10524;48.132;8.518;2022-08-24T14:25:24;34.50;69.40
20726;DHT22;10524;48.132;8.518;2022-08-24T14:40:34;35.50;66.60
20726;DHT22;10524;48.132;8.518;2022-08-24T14:49:10;33.30;70.10
20726;DHT22;10524;48.132;8.518;2022-08-24T14:55:06;33.10;72.90
20726;DHT22;10524;48.132;8.518;2022-08-24T14:57:43;33.00;71.50
20726;DHT22;10524;48.132;8.518;2022-08-24T15:00:16;33.60;71.50
20726;DHT22;10524;48.132;8.518;2022-08-24T15:11:12;32.70;72.20
20726;DHT22;10524;48.132;8.518;2022-08-24T15:13:43;31.70;73.20
20726;DHT22;10524;48.132;8.518;2022-08-24T15:16:20;32.40;73.20
20726;DHT22;10524;48.132;8.518;2022-08-24T15:26:30;32.50;72.70
20726;DHT22;10524;48.132;8.518;2022-08-24T15:28:58;32.30;73.50
20726;DHT22;10524;48.132;8.518;2022-08-24T15:31:27;32.10;74.60
20726;DHT22;10524;48.132;8.518;2022-08-24T15:33:59;31.80;74.70
20726;DHT22;10524;48.132;8.518;2022-08-24T15:36:27;31.50;75.40
20726;DHT22;10524;48.132;8.518;2022-08-24T15:38:54;31.30;76.20
20726;DHT22;10524;48.132;8.518;2022-08-24T15:41:23;30.90;76.90
20726;DHT22;10524;48.132;8.518;2022-08-24T15:43:59;30.40;77.80
20726;DHT22;10524;48.132;8.518;2022-08-24T15:46:30;29.70;78.50
20726;DHT22;10524;48.132;8.518;2022-08-24T15:51:45;28.80;80.10
20726;DHT22;10524;48.132;8.518;2022-08-24T15:57:02;28.40;82.40
20726;DHT22;10524;48.132;8.518;2022-08-24T16:04:59;27.70;83.50
20726;DHT22;10524;48.132;8.518;2022-08-24T16:16:06;27.60;84.90
20726;DHT22;10524;48.132;8.518;2022-08-24T16:18:51;27.30;85.90
20726;DHT22;10524;48.132;8.518;2022-08-24T16:24:13;26.90;88.90
20726;DHT22;10524;48.132;8.518;2022-08-24T16:29:47;27.00;90.00
20726;DHT22;10524;48.132;8.518;2022-08-24T16:32:16;26.90;90.10
20726;DHT22;10524;48.132;8.518;2022-08-24T16:34:47;26.90;90.40
20726;DHT22;10524;48.132;8.518;2022-08-24T16:37:14;26.70;90.70
20726;DHT22;10524;48.132;8.518;2022-08-24T16:39:40;26.70;90.80
20726;DHT22;10524;48.132;8.518;2022-08-24T16:42:11;26.60;91.00
20726;DHT22;10524;48.132;8.518;2022-08-24T16:44:39;26.60;91.10
20726;DHT22;10524;48.132;8.518;2022-08-24T16:47:07;26.50;91.60
20726;DHT22;10524;48.132;8.518;2022-08-24T16:49:33;26.50;91.90
20726;DHT22;10524;48.132;8.518;2022-08-24T16:52:00;26.50;91.80
20726;DHT22;10524;48.132;8.518;2022-08-24T16:54:27;26.40;91.80
20726;DHT22;10524;48.132;8.518;2022-08-24T16:56:54;26.30;92.40
20726;DHT22;10524;48.132;8.518;2022-08-24T16:59:29;26.30;92.70
20726;DHT22;10524;48.132;8.518;2022-08-24T17:01:57;26.30;92.80
20726;DHT22;10524;48.132;8.518;2022-08-24T17:04:22;26.30;93.20
20726;DHT22;10524;48.132;8.518;2022-08-24T17:06:49;26.20;93.40
20726;DHT22;10524;48.132;8.518;2022-08-24T17:09:15;26.20;93.80
20726;DHT22;10524;48.132;8.518;2022-08-24T17:11:41;26.10;93.90
20726;DHT22;10524;48.132;8.518;2022-08-24T17:14:08;26.10;94.00
20726;DHT22;10524;48.132;8.518;2022-08-24T17:16:34;26.00;94.20
20726;DHT22;10524;48.132;8.518;2022-08-24T17:19:03;25.90;94.30
20726;DHT22;10524;48.132;8.518;2022-08-24T17:21:30;25.70;94.40
20726;DHT22;10524;48.132;8.518;2022-08-24T17:23:56;25.50;94.70
20726;DHT22;10524;48.132;8.518;2022-08-24T17:26:22;25.30;95.00
20726;DHT22;10524;48.132;8.518;2022-08-24T17:28:49;25.20;95.10
20726;DHT22;10524;48.132;8.518;2022-08-24T17:31:16;24.90;95.60
20726;DHT22;10524;48.132;8.518;2022-08-24T17:33:42;24.70;96.00
20726;DHT22;10524;48.132;8.518;2022-08-24T17:36:08;24.50;96.00
20726;DHT22;10524;48.132;8.518;2022-08-24T17:38:41;24.40;96.30
20726;DHT22;10524;48.132;8.518;2022-08-24T17:41:07;24.20;96.50
20726;DHT22;10524;48.132;8.518;2022-08-24T17:43:33;24.00;97.00
20726;DHT22;10524;48.132;8.518;2022-08-24T17:46:01;23.90;97.30
20726;DHT22;10524;48.132;8.518;2022-08-24T17:48:27;23.70;97.30
20726;DHT22;10524;48.132;8.518;2022-08-24T17:50:53;23.60;97.40
20726;DHT22;10524;48.132;8.518;2022-08-24T17:53:19;23.50;97.80
20726;DHT22;10524;48.132;8.518;2022-08-24T17:55:45;23.40;98.00
20726;DHT22;10524;48.132;8.518;2022-08-24T17:58:11;23.30;98.10
20726;DHT22;10524;48.132;8.518;2022-08-24T18:00:38;23.20;98.30
20726;DHT22;10524;48.132;8.518;2022-08-24T18:03:04;23.10;98.60
20726;DHT22;10524;48.132;8.518;2022-08-24T18:05:31;23.00;98.90
20726;DHT22;10524;48.132;8.518;2022-08-24T18:07:58;22.90;99.10
20726;DHT22;10524;48.132;8.518;2022-08-24T18:10:29;22.80;99.50
20726;DHT22;10524;48.132;8.518;2022-08-24T18:12:57;22.80;99.80
20726;DHT22;10524;48.132;8.518;2022-08-24T18:15:24;22.60;99.90
20726;DHT22;10524;48.132;8.518;2022-08-24T18:17:52;22.60;99.90
20726;DHT22;10524;48.132;8.518;2022-08-24T18:20:22;22.40;99.90
20726;DHT22;10524;48.132;8.518;2022-08-24T18:22:49;22.30;99.90
20726;DHT22;10524;48.132;8.518;2022-08-24T18:25:17;22.20;99.90
20726;DHT22;10524;48.132;8.518;2022-08-24T18:27:44;22.10;99.90
20726;DHT22;10524;48.132;8.518;2022-08-24T18:30:18;22.00;99.90
20726;DHT22;10524;48.132;8.518;2022-08-24T18:32:45;21.90;99.90
20726;DHT22;10524;48.132;8.518;2022-08-24T18:35:11;21.70;99.90
20726;DHT22;10524;48.132;8.518;2022-08-24T18:37:37;21.60;99.90
20726;DHT22;10524;48.132;8.518;2022-08-24T18:40:04;21.50;99.90
20726;DHT22;10524;48.132;8.518;2022-08-24T18:42:30;21.40;99.90
20726;DHT22;10524;48.132;8.518;2022-08-24T18:44:57;21.40;99.90
20726;DHT22;10524;48.132;8.518;2022-08-24T18:47:23;21.20;99.90
20726;DHT22;10524;48.132;8.518;2022-08-24T18:49:48;21.10;99.90
20726;DHT22;10524;48.132;8.518;2022-08-24T18:52:15;21.00;99.90
20726;DHT22;10524;48.132;8.518;2022-08-24T18:54:42;21.00;99.90
20726;DHT22;10524;48.132;8.518;2022-08-24T18:57:12;20.90;99.90
20726;DHT22;10524;48.132;8.518;2022-08-24T18:59:38;20.80;99.90
20726;DHT22;10524;48.132;8.518;2022-08-24T19:02:09;20.60;99.90
20726;DHT22;10524;48.132;8.518;2022-08-24T19:07:28;20.50;99.90
20726;DHT22;10524;48.132;8.518;2022-08-24T19:09:55;20.40;99.90
20726;DHT22;10524;48.132;8.518;2022-08-24T19:12:21;20.40;99.90
20726;DHT22;10524;48.132;8.518;2022-08-24T19:14:49;20.30;99.90
20726;DHT22;10524;48.132;8.518;2022-08-24T19:17:16;20.10;99.90
20726;DHT22;10524;48.132;8.518;2022-08-24T19:19:42;20.00;99.90
20726;DHT22;10524;48.132;8.518;2022-08-24T19:22:07;19.90;99.90
20726;DHT22;10524;48.132;8.518;2022-08-24T19:24:35;19.80;99.90
20726;DHT22;10524;48.132;8.518;2022-08-24T19:27:01;19.80;99.90
20726;DHT22;10524;48.132;8.518;2022-08-24T19:29:27;19.70;99.90
20726;DHT22;10524;48.132;8.518;2022-08-24T19:31:54;19.70;99.90
20726;DHT22;10524;48.132;8.518;2022-08-24T19:34:21;19.60;99.90
20726;DHT22;10524;48.132;8.518;2022-08-24T19:36:47;19.50;99.90
20726;DHT22;10524;48.132;8.518;2022-08-24T19:39:13;19.50;99.90
20726;DHT22;10524;48.132;8.518;2022-08-24T19:41:43;19.30;99.90
20726;DHT22;10524;48.132;8.518;2022-08-24T19:44:10;19.20;99.90
20726;DHT22;10524;48.132;8.518;2022-08-24T19:46:54;19.10;99.90
20726;DHT22;10524;48.132;8.518;2022-08-24T19:49:22;19.10;99.90
20726;DHT22;10524;48.132;8.518;2022-08-24T19:51:48;19.00;99.90